ウラジオストク の空港の天気 - METARとTAF

ウラジオストク空港 ( UHWW / VVO ) - ロシア ウラジオストク
飛行場実況気象(Metar)
観測時間07/22 10:00 VLAT (07/22 00:00 UTC)
風向・風速東南東 1m/s
視程10km以上
天気現象
なし
気温20℃
湿度83%
気圧1012hPa
METARUHWW 220000Z 11001MPS 9999 NSC 20/17 Q1012 R25L/0///70 NOSIG RMK QFE758
過去の天気等 Google飛行場航空写真 Wunderground天気予報

過去48時間のMETAR

飛行場予報(TAF)
発表時間: 7/22 09:00 VLAT (7/21 23:00 UTC)
予報対象時間: 22日10時 VLAT ~ 23日10時 VLAT
風向・風速北 3m/s
視程5,000m
天気現象煙霧
全天の8割程度の雲 雲底高度 1,220m
22日12時 VLAT から
風向・風速南南西 3m/s
視程10km以上
全天の4割程度の雲 雲底高度 910m
22日12時 VLAT ~ 22日18時 VLAT に一時的に
視程5,000m
天気現象弱いしゅう雨
全天の4割程度の積乱雲 雲底高度 610m
22日18時 VLAT ~ 22日21時 VLAT に徐々に
視程2,100m
天気現象もや
全天の8割程度の雲 雲底高度 210m
全天の8割程度の雲 雲底高度 460m
23日1時 VLAT ~ 23日2時 VLAT に徐々に
風向・風速東 3m/s
TAF COR UHWW 212300Z 2200/2224 36003MPS 5000 HZ BKN040
FM220200 20003MPS 9999 SCT030
TEMPO 2202/2208 5000 -SHRA SCT020CB
BECMG 2208/2211 2100 BR BKN007 BKN015
BECMG 2215/2216 10003MPS